Time;durP1;ratioP1;P1;durP2;ratioP2;P2;SDS_P1;SDS_P2;PMS_P1;PMS_P2;Temp;Humidity;BMP_temperature;BMP_pressure;BME280_temperature;BME280_humidity;BME280_pressure;Samples;Min_cycle;Max_cycle;Signal;HPM_P1;HPM_P2
2020/12/04 00:00:59;;;;;;;3.43;3.33;;;3.30;99.90;;;;;;5070704;28;20185;-56
2020/12/04 00:03:25;;;;;;;3.20;3.10;;;3.30;99.90;;;;;;5072033;28;20195;-58
2020/12/04 00:05:50;;;;;;;2.63;2.50;;;3.30;99.90;;;;;;5071822;28;20175;-56
2020/12/04 00:08:16;;;;;;;3.50;3.40;;;3.30;99.90;;;;;;5071737;28;20175;-59
2020/12/04 00:10:41;;;;;;;3.20;3.10;;;3.40;99.90;;;;;;5071734;28;20202;-59
2020/12/04 00:13:07;;;;;;;3.90;3.80;;;3.40;99.90;;;;;;5071878;28;20197;-55
2020/12/04 00:15:32;;;;;;;3.47;3.37;;;3.40;99.90;;;;;;5072062;28;20171;-55
2020/12/04 00:18:00;;;;;;;3.70;3.60;;;3.40;99.90;;;;;;5071397;28;20175;-55
2020/12/04 00:20:26;;;;;;;3.90;3.80;;;3.40;99.90;;;;;;5071922;28;20167;-52
2020/12/04 00:22:51;;;;;;;3.57;3.47;;;3.40;99.90;;;;;;5071393;28;20472;-56
2020/12/04 00:25:17;;;;;;;3.63;3.53;;;3.40;99.90;;;;;;5071737;28;20251;-55
2020/12/04 00:27:42;;;;;;;3.60;3.50;;;3.40;99.90;;;;;;5071310;28;20167;-54
2020/12/04 00:30:08;;;;;;;3.83;3.73;;;3.40;99.90;;;;;;5070540;28;20175;-58
2020/12/04 00:32:34;;;;;;;3.60;3.50;;;3.40;99.90;;;;;;5071680;28;20198;-58
2020/12/04 00:34:59;;;;;;;3.53;3.43;;;3.40;99.90;;;;;;5071554;28;20171;-54
2020/12/04 00:37:25;;;;;;;3.37;3.27;;;3.40;99.90;;;;;;5071410;28;20533;-58
2020/12/04 00:39:50;;;;;;;4.20;4.10;;;3.40;99.90;;;;;;5071488;28;20212;-54
2020/12/04 00:42:16;;;;;;;4.23;4.03;;;3.40;99.90;;;;;;5074528;28;20631;-52
2020/12/04 00:44:41;;;;;;;3.70;3.60;;;3.40;99.90;;;;;;5075604;28;20173;-56
2020/12/04 00:47:07;;;;;;;4.00;3.90;;;3.40;99.90;;;;;;5075517;28;20167;-58
2020/12/04 00:49:33;;;;;;;4.30;4.20;;;3.40;99.90;;;;;;5075591;28;20646;-58
2020/12/04 00:51:58;;;;;;;3.70;3.60;;;3.50;99.90;;;;;;5075534;28;20206;-53
2020/12/04 00:54:24;;;;;;;4.10;3.90;;;3.40;99.90;;;;;;5075548;28;20167;-57
2020/12/04 00:56:49;;;;;;;5.10;4.90;;;3.40;99.90;;;;;;5075208;28;20242;-57
2020/12/04 00:59:15;;;;;;;4.10;4.00;;;3.40;99.90;;;;;;5075477;28;20189;-55
2020/12/04 01:01:40;;;;;;;4.10;4.00;;;3.40;99.90;;;;;;5075333;28;20558;-57
2020/12/04 01:04:06;;;;;;;4.20;4.10;;;3.50;99.90;;;;;;5075358;28;20193;-53
2020/12/04 01:06:32;;;;;;;3.83;3.73;;;3.50;99.90;;;;;;5075086;28;20171;-53
2020/12/04 01:08:57;;;;;;;4.10;4.00;;;3.50;99.90;;;;;;5075518;28;20175;-57
2020/12/04 01:11:24;;;;;;;3.87;3.77;;;3.50;99.90;;;;;;5075155;28;20262;-57
2020/12/04 01:13:50;;;;;;;3.80;3.70;;;3.50;99.90;;;;;;5075143;28;20191;-57
2020/12/04 01:16:15;;;;;;;3.90;3.80;;;3.50;99.90;;;;;;5075090;28;20451;-57
2020/12/04 01:18:41;;;;;;;4.47;4.30;;;3.50;99.90;;;;;;5074900;28;20658;-57
2020/12/04 01:21:07;;;;;;;4.10;4.00;;;3.60;99.90;;;;;;5074911;28;20643;-56
2020/12/04 01:23:33;;;;;;;4.00;3.90;;;3.60;99.90;;;;;;5074931;28;20278;-58
2020/12/04 01:25:58;;;;;;;3.70;3.60;;;3.50;99.90;;;;;;5074798;28;20456;-58
2020/12/04 01:28:24;;;;;;;4.00;3.80;;;3.60;99.90;;;;;;5074765;28;20174;-57
2020/12/04 01:30:49;;;;;;;3.17;3.13;;;3.60;99.90;;;;;;5074867;28;20607;-58
2020/12/04 01:33:15;;;;;;;2.90;2.90;;;3.60;99.90;;;;;;5074893;28;20187;-55
2020/12/04 01:35:41;;;;;;;4.13;4.03;;;3.60;99.90;;;;;;5074623;28;20163;-58
2020/12/04 01:38:06;;;;;;;3.50;3.40;;;3.70;99.90;;;;;;5074433;28;20178;-57
2020/12/04 01:40:33;;;;;;;3.90;3.80;;;3.70;99.90;;;;;;5074710;28;20172;-58
2020/12/04 01:42:59;;;;;;;4.13;4.03;;;3.70;99.90;;;;;;5074384;28;20274;-56
2020/12/04 01:45:25;;;;;;;4.40;4.20;;;3.70;99.90;;;;;;5074547;28;20929;-54
2020/12/04 01:47:52;;;;;;;3.97;3.87;;;3.70;99.90;;;;;;5074139;28;20405;-57
2020/12/04 01:50:18;;;;;;;4.27;4.17;;;3.70;99.90;;;;;;5074514;28;20167;-54
2020/12/04 01:52:43;;;;;;;3.77;3.67;;;3.70;99.90;;;;;;5073936;28;20820;-57
2020/12/04 01:55:10;;;;;;;4.07;3.97;;;3.70;99.90;;;;;;5074416;28;20393;-55
2020/12/04 01:57:42;;;;;;;3.60;3.50;;;3.70;99.90;;;;;;5074084;28;20546;-58
2020/12/04 02:00:07;;;;;;;3.80;3.70;;;3.70;99.90;;;;;;5074479;28;20413;-55
2020/12/04 02:02:33;;;;;;;3.80;3.70;;;3.80;99.90;;;;;;5074165;28;20479;-57
2020/12/04 02:04:58;;;;;;;3.73;3.63;;;3.70;99.90;;;;;;5074327;28;20191;-57
2020/12/04 02:07:45;;;;;;;4.40;4.20;;;3.70;99.90;;;;;;5073836;28;20171;-58
2020/12/04 02:10:31;;;;;;;3.50;3.40;;;3.70;99.90;;;;;;5074246;28;20191;-57
2020/12/04 02:12:57;;;;;;;3.53;3.43;;;3.80;99.90;;;;;;5074068;28;20516;-56
2020/12/04 02:15:24;;;;;;;3.70;3.60;;;3.80;99.90;;;;;;5074071;28;20475;-56
2020/12/04 02:17:55;;;;;;;4.13;4.00;;;3.80;99.90;;;;;;5073524;28;20946;-59
2020/12/04 02:20:20;;;;;;;3.63;3.57;;;3.70;99.90;;;;;;5074031;28;20398;-55
2020/12/04 02:22:46;;;;;;;4.00;3.90;;;3.70;99.90;;;;;;5073863;28;20499;-57
2020/12/04 02:25:11;;;;;;;3.50;3.50;;;3.70;99.90;;;;;;5073728;28;20167;-54
2020/12/04 02:27:47;;;;;;;3.40;3.40;;;3.70;99.90;;;;;;5073677;28;20160;-58
2020/12/04 02:30:20;;;;;;;3.00;2.90;;;3.80;99.90;;;;;;5073755;28;20639;-57
2020/12/04 02:32:46;;;;;;;3.47;3.37;;;3.80;99.90;;;;;;5073809;28;20426;-58
2020/12/04 02:35:11;;;;;;;3.40;3.30;;;3.80;99.90;;;;;;5073543;28;20404;-56
2020/12/04 02:37:37;;;;;;;2.97;2.87;;;3.90;99.90;;;;;;5073457;28;20651;-58
2020/12/04 02:40:03;;;;;;;3.17;3.13;;;3.80;99.90;;;;;;5073589;28;20167;-56
2020/12/04 02:42:29;;;;;;;3.53;3.43;;;3.80;99.90;;;;;;5073558;28;20207;-58
2020/12/04 02:44:55;;;;;;;3.53;3.43;;;3.90;99.90;;;;;;5073286;28;20402;-57
2020/12/04 02:47:24;;;;;;;4.00;3.90;;;3.90;99.90;;;;;;5073276;28;20564;-56
2020/12/04 02:49:50;;;;;;;3.90;3.80;;;3.90;99.90;;;;;;5073468;28;20242;-54
2020/12/04 02:52:19;;;;;;;3.40;3.30;;;3.90;99.90;;;;;;5073276;28;20509;-57
2020/12/04 02:54:45;;;;;;;3.57;3.47;;;3.90;99.90;;;;;;5073347;28;20179;-58
2020/12/04 02:57:10;;;;;;;3.90;3.80;;;4.00;99.90;;;;;;5072981;28;20546;-54
2020/12/04 02:59:36;;;;;;;4.10;4.00;;;4.00;99.90;;;;;;5073169;28;20260;-55
2020/12/04 03:02:01;;;;;;;4.10;4.00;;;4.00;99.90;;;;;;5071698;28;20207;-57
2020/12/04 03:04:27;;;;;;;3.83;3.73;;;4.00;99.90;;;;;;5072490;28;20172;-56
2020/12/04 03:06:52;;;;;;;4.10;4.00;;;4.00;99.90;;;;;;5072715;28;20321;-55
2020/12/04 03:09:18;;;;;;;3.70;3.60;;;4.10;99.90;;;;;;5073100;28;20236;-55
2020/12/04 03:11:43;;;;;;;3.70;3.60;;;4.10;99.90;;;;;;5072899;28;20202;-54
2020/12/04 03:14:09;;;;;;;3.83;3.73;;;4.10;99.90;;;;;;5073738;28;20183;-61
2020/12/04 03:16:35;;;;;;;3.57;3.47;;;4.00;99.90;;;;;;5071927;28;20183;-61
2020/12/04 03:19:00;;;;;;;3.27;3.27;;;4.10;99.90;;;;;;5073171;28;20171;-61
2020/12/04 03:21:26;;;;;;;3.00;3.00;;;4.10;99.90;;;;;;5073164;28;20225;-61
2020/12/04 03:23:51;;;;;;;3.00;2.90;;;4.10;99.90;;;;;;5072836;28;20202;-61
2020/12/04 03:26:17;;;;;;;3.40;3.30;;;4.10;99.90;;;;;;5073219;28;20182;-61
2020/12/04 03:28:42;;;;;;;3.50;3.40;;;4.10;99.90;;;;;;5071619;28;20167;-60
2020/12/04 03:31:08;;;;;;;3.60;3.50;;;4.20;99.90;;;;;;5071739;28;20822;-61
2020/12/04 03:33:33;;;;;;;3.57;3.47;;;4.20;99.90;;;;;;5072499;28;20194;-60
2020/12/04 03:35:59;;;;;;;3.93;3.80;;;4.20;99.90;;;;;;5072761;28;20167;-60
2020/12/04 03:38:24;;;;;;;3.97;3.80;;;4.10;99.90;;;;;;5072946;28;20242;-60
2020/12/04 03:40:50;;;;;;;3.93;3.83;;;4.20;99.90;;;;;;5073055;28;20160;-61
2020/12/04 03:43:15;;;;;;;4.10;4.00;;;4.20;99.90;;;;;;5072538;28;20304;-61
2020/12/04 03:45:41;;;;;;;3.80;3.70;;;4.30;99.90;;;;;;5072984;28;20274;-61
2020/12/04 03:48:06;;;;;;;4.27;4.17;;;4.30;99.90;;;;;;5073294;28;20167;-61
2020/12/04 03:50:32;;;;;;;4.13;4.03;;;4.30;99.90;;;;;;5073326;28;20171;-60
2020/12/04 03:52:58;;;;;;;3.93;3.83;;;4.30;99.90;;;;;;5072685;28;20191;-60
2020/12/04 03:55:23;;;;;;;4.17;4.07;;;4.30;99.90;;;;;;5072526;28;20174;-61
2020/12/04 03:57:49;;;;;;;3.60;3.50;;;4.30;99.90;;;;;;5072376;28;20246;-61
2020/12/04 04:00:14;;;;;;;3.90;3.80;;;4.30;99.90;;;;;;5072862;28;20167;-60
2020/12/04 04:02:40;;;;;;;4.40;4.30;;;4.40;99.90;;;;;;5072135;28;20199;-60
2020/12/04 04:05:05;;;;;;;4.00;3.90;;;4.50;99.90;;;;;;5072713;28;20246;-60
2020/12/04 04:07:31;;;;;;;3.53;3.43;;;4.50;99.90;;;;;;5072457;28;20651;-59
2020/12/04 04:09:57;;;;;;;3.27;3.17;;;4.50;99.90;;;;;;5073029;28;20163;-60
2020/12/04 04:12:22;;;;;;;3.50;3.40;;;4.60;99.90;;;;;;5072131;28;20217;-60
2020/12/04 04:14:48;;;;;;;3.90;3.80;;;4.60;99.90;;;;;;5072374;28;20175;-61
2020/12/04 04:17:13;;;;;;;3.80;3.70;;;4.70;99.90;;;;;;5072223;28;20247;-61
2020/12/04 04:19:39;;;;;;;3.70;3.60;;;4.70;99.90;;;;;;5072745;28;20649;-60
2020/12/04 04:22:04;;;;;;;4.13;4.03;;;4.80;99.90;;;;;;5072461;28;20621;-60
2020/12/04 04:24:30;;;;;;;3.60;3.50;;;4.80;99.90;;;;;;5072831;28;20644;-59
2020/12/04 04:26:55;;;;;;;3.50;3.40;;;4.80;99.90;;;;;;5072777;28;20171;-61
2020/12/04 04:29:21;;;;;;;3.97;3.87;;;4.80;99.90;;;;;;5072945;28;20167;-61
2020/12/04 04:31:50;;;;;;;3.00;2.90;;;4.80;99.90;;;;;;5072648;28;20618;-61
2020/12/04 04:34:16;;;;;;;3.13;3.03;;;4.90;99.90;;;;;;5072467;28;20292;-60
2020/12/04 04:36:42;;;;;;;3.27;3.17;;;4.90;99.90;;;;;;5072267;28;20515;-61
2020/12/04 04:39:07;;;;;;;3.20;2.97;;;5.00;99.90;;;;;;5072768;28;20171;-61
2020/12/04 04:41:33;;;;;;;2.87;2.83;;;5.00;99.90;;;;;;5072586;28;20682;-58
2020/12/04 04:43:58;;;;;;;2.87;2.77;;;5.00;99.90;;;;;;5072294;28;20187;-60
2020/12/04 04:46:34;;;;;;;2.60;2.60;;;5.10;99.90;;;;;;5072568;28;20160;-60
2020/12/04 04:49:27;;;;;;;3.10;3.00;;;5.10;99.90;;;;;;5072560;28;20167;-61
2020/12/04 04:51:53;;;;;;;3.00;3.00;;;5.20;99.90;;;;;;5072691;28;20421;-61
2020/12/04 04:54:20;;;;;;;3.30;3.30;;;5.20;99.90;;;;;;5073318;28;20397;-60
2020/12/04 04:56:52;;;;;;;3.77;3.67;;;5.10;99.90;;;;;;5072754;28;20771;-61
2020/12/04 04:59:19;;;;;;;2.97;2.87;;;5.20;99.90;;;;;;5072640;28;20429;-61
2020/12/04 05:01:47;;;;;;;2.50;2.40;;;5.20;99.90;;;;;;5072598;28;20824;-60
2020/12/04 05:04:14;;;;;;;3.10;3.00;;;5.20;99.90;;;;;;5072995;28;20885;-61
2020/12/04 05:06:39;;;;;;;3.50;3.40;;;5.10;99.90;;;;;;5072205;28;20886;-60
2020/12/04 05:09:06;;;;;;;2.60;2.50;;;5.20;99.90;;;;;;5072728;28;20401;-60
2020/12/04 05:11:33;;;;;;;2.57;2.57;;;5.10;99.90;;;;;;5072848;28;20182;-61
2020/12/04 05:14:15;;;;;;;3.00;2.93;;;5.20;99.90;;;;;;5072955;28;20498;-61
2020/12/04 05:16:43;;;;;;;2.73;2.63;;;5.10;99.90;;;;;;5072532;28;20434;-60
2020/12/04 05:19:09;;;;;;;2.33;2.33;;;5.10;99.90;;;;;;5072851;28;20401;-59
2020/12/04 05:21:35;;;;;;;2.40;2.30;;;5.20;99.90;;;;;;5072433;28;20449;-61
2020/12/04 05:24:01;;;;;;;2.60;2.50;;;5.10;99.90;;;;;;5072438;28;20414;-60
2020/12/04 05:26:35;;;;;;;3.33;2.60;;;5.10;99.90;;;;;;5072655;28;20485;-59
2020/12/04 05:29:02;;;;;;;2.57;2.50;;;5.00;99.90;;;;;;5076690;28;20166;-61
2020/12/04 05:31:33;;;;;;;2.10;2.00;;;5.10;99.90;;;;;;5076852;28;20754;-61
2020/12/04 05:34:00;;;;;;;2.90;2.80;;;5.10;99.90;;;;;;5076162;28;20528;-60
2020/12/04 05:36:28;;;;;;;2.90;2.90;;;5.10;99.90;;;;;;5076375;28;20398;-61
2020/12/04 05:38:55;;;;;;;3.63;2.80;;;5.10;99.90;;;;;;5076589;28;20816;-60
2020/12/04 05:41:21;;;;;;;2.60;2.60;;;5.10;99.90;;;;;;5076364;28;20447;-61
2020/12/04 05:43:47;;;;;;;2.80;2.80;;;5.00;99.90;;;;;;5075982;28;20417;-61
2020/12/04 05:46:20;;;;;;;2.63;2.53;;;5.00;99.90;;;;;;5075875;28;20807;-60
2020/12/04 05:48:56;;;;;;;3.10;2.90;;;5.00;99.90;;;;;;5076067;28;20159;-61
2020/12/04 05:51:28;;;;;;;3.60;3.50;;;5.10;99.90;;;;;;5076395;28;20412;-61
2020/12/04 05:53:54;;;;;;;3.20;3.10;;;5.00;99.90;;;;;;5076038;28;20425;-61
2020/12/04 05:56:21;;;;;;;2.33;2.23;;;5.00;99.90;;;;;;5076204;28;20412;-61
2020/12/04 05:58:53;;;;;;;3.83;3.40;;;5.00;99.90;;;;;;5075607;28;20179;-60
2020/12/04 06:01:21;;;;;;;2.07;2.07;;;5.00;99.90;;;;;;5076035;28;20413;-61
2020/12/04 06:03:50;;;;;;;2.57;2.47;;;5.00;99.90;;;;;;5076086;28;20429;-60
2020/12/04 06:06:23;;;;;;;2.20;2.20;;;5.00;99.90;;;;;;5076297;28;20930;-61
2020/12/04 06:08:48;;;;;;;1.90;1.80;;;5.00;99.90;;;;;;5075958;28;21066;-61
2020/12/04 06:11:14;;;;;;;2.30;2.20;;;5.00;99.90;;;;;;5075677;28;20447;-61
2020/12/04 06:13:40;;;;;;;2.50;2.40;;;5.00;99.90;;;;;;5075567;28;20191;-60
2020/12/04 06:16:13;;;;;;;2.60;2.40;;;4.90;99.90;;;;;;5075664;28;20390;-61
2020/12/04 06:18:42;;;;;;;2.33;2.27;;;5.00;99.90;;;;;;5075382;28;20155;-61
2020/12/04 06:21:08;;;;;;;2.30;2.30;;;5.10;99.90;;;;;;5075241;28;20897;-61
2020/12/04 06:23:33;;;;;;;2.10;2.10;;;5.00;99.90;;;;;;5075349;28;20414;-61
2020/12/04 06:26:03;;;;;;;2.30;2.30;;;5.00;99.90;;;;;;5075323;28;20202;-61
2020/12/04 06:28:33;;;;;;;2.10;2.00;;;5.00;99.90;;;;;;5075006;28;20679;-61
2020/12/04 06:31:06;;;;;;;1.90;1.90;;;5.00;99.90;;;;;;5075108;28;20421;-61
2020/12/04 06:33:43;;;;;;;1.80;1.80;;;5.00;99.90;;;;;;5074665;28;20421;-61
2020/12/04 06:36:11;;;;;;;1.90;1.90;;;4.90;99.90;;;;;;5074444;28;20393;-61
2020/12/04 06:38:39;;;;;;;2.00;1.90;;;4.90;99.90;;;;;;5073196;28;20402;-61
2020/12/04 06:41:24;;;;;;;1.80;1.70;;;4.80;99.90;;;;;;5074985;28;20402;-61
2020/12/04 06:43:52;;;;;;;2.23;2.13;;;4.90;99.90;;;;;;5074543;28;20435;-61
2020/12/04 06:46:46;;;;;;;1.70;1.70;;;4.90;99.90;;;;;;5074531;28;20393;-61
2020/12/04 06:49:12;;;;;;;1.97;1.97;;;4.80;99.90;;;;;;5073874;28;20417;-60
2020/12/04 06:51:39;;;;;;;1.77;1.73;;;4.90;99.90;;;;;;5074420;28;20905;-61
2020/12/04 06:54:06;;;;;;;1.97;1.87;;;4.90;99.90;;;;;;5073918;28;20275;-61
2020/12/04 06:56:33;;;;;;;2.80;2.70;;;4.80;99.90;;;;;;5074032;28;20778;-61
2020/12/04 06:58:58;;;;;;;1.63;1.63;;;4.90;99.90;;;;;;5073898;28;20424;-61
2020/12/04 07:01:24;;;;;;;2.13;2.03;;;4.80;99.90;;;;;;5074011;28;20522;-60
2020/12/04 07:03:55;;;;;;;2.10;2.00;;;4.80;99.90;;;;;;5073835;28;20187;-61
2020/12/04 07:06:24;;;;;;;1.90;1.73;;;4.80;99.90;;;;;;5074341;28;20255;-61
2020/12/04 07:08:58;;;;;;;2.00;2.00;;;4.70;99.90;;;;;;5073922;28;20974;-61
2020/12/04 07:11:25;;;;;;;2.27;2.00;;;4.80;99.90;;;;;;5073574;28;20398;-61
2020/12/04 07:13:52;;;;;;;1.97;1.97;;;4.80;99.90;;;;;;5073412;28;21069;-61
2020/12/04 07:16:18;;;;;;;2.20;2.20;;;4.80;99.90;;;;;;5073550;28;20398;-61
2020/12/04 07:18:49;;;;;;;2.00;2.00;;;4.70;99.90;;;;;;5073500;28;20402;-61
2020/12/04 07:21:15;;;;;;;3.93;2.00;;;4.70;99.90;;;;;;5073528;28;20466;-60
2020/12/04 07:23:40;;;;;;;2.40;2.30;;;4.80;99.90;;;;;;5073423;28;20521;-60
2020/12/04 07:26:16;;;;;;;2.50;2.40;;;4.80;99.90;;;;;;5073278;28;20454;-61
2020/12/04 07:28:44;;;;;;;2.20;2.13;;;4.70;99.90;;;;;;5073668;28;20159;-61
2020/12/04 07:31:18;;;;;;;2.23;2.00;;;4.70;99.90;;;;;;5073767;28;20405;-61
2020/12/04 07:33:58;;;;;;;2.27;2.17;;;4.70;99.90;;;;;;5073581;28;20422;-61
2020/12/04 07:36:25;;;;;;;1.80;1.80;;;4.70;99.90;;;;;;5073828;28;20484;-61
2020/12/04 07:38:56;;;;;;;2.03;1.93;;;4.60;99.90;;;;;;5073281;28;20752;-61
2020/12/04 07:41:39;;;;;;;2.00;1.90;;;4.60;99.90;;;;;;5073123;28;20469;-61
2020/12/04 07:44:06;;;;;;;2.10;2.00;;;4.60;99.90;;;;;;5073240;28;20425;-61
2020/12/04 07:46:33;;;;;;;2.40;2.30;;;4.70;99.90;;;;;;5072688;28;20774;-61
2020/12/04 07:49:02;;;;;;;2.60;2.50;;;4.70;99.90;;;;;;5072623;28;20424;-60
2020/12/04 07:51:28;;;;;;;2.00;2.00;;;4.70;99.90;;;;;;5073060;28;20409;-61
2020/12/04 07:53:55;;;;;;;2.07;1.97;;;4.70;99.90;;;;;;5072892;28;20421;-61
2020/12/04 07:56:24;;;;;;;2.40;2.30;;;4.60;99.90;;;;;;5073312;28;20401;-61
2020/12/04 07:59:02;;;;;;;2.67;2.60;;;4.70;99.90;;;;;;5072608;28;20425;-61
2020/12/04 08:01:28;;;;;;;2.80;2.60;;;4.80;99.90;;;;;;5072873;28;20456;-61
2020/12/04 08:03:55;;;;;;;2.07;1.97;;;4.70;99.90;;;;;;5072619;28;20422;-61
2020/12/04 08:06:25;;;;;;;2.10;2.10;;;4.70;99.90;;;;;;5073199;28;20459;-61
2020/12/04 08:09:08;;;;;;;2.00;2.00;;;4.80;99.90;;;;;;5072760;28;20417;-61
2020/12/04 08:11:37;;;;;;;1.87;1.87;;;4.70;99.90;;;;;;5072925;28;20402;-60
2020/12/04 08:14:04;;;;;;;1.50;1.50;;;4.80;99.90;;;;;;5072528;28;20429;-61
2020/12/04 08:16:32;;;;;;;1.50;1.50;;;4.80;99.90;;;;;;5072725;28;20533;-60
2020/12/04 08:19:11;;;;;;;1.80;1.80;;;4.80;99.90;;;;;;5072718;28;20493;-61
2020/12/04 08:21:54;;;;;;;2.77;2.57;;;4.90;99.90;;;;;;5072457;28;20456;-61
2020/12/04 08:24:26;;;;;;;2.10;2.03;;;5.00;99.90;;;;;;5072647;28;20397;-61
2020/12/04 08:27:06;;;;;;;1.97;1.90;;;4.90;99.90;;;;;;5071859;28;20444;-61
2020/12/04 08:29:33;;;;;;;1.80;1.80;;;4.90;99.90;;;;;;5072491;28;20402;-61
2020/12/04 08:32:21;;;;;;;2.60;2.50;;;5.00;99.90;;;;;;5072580;28;20416;-61
2020/12/04 08:34:48;;;;;;;2.40;2.00;;;5.10;99.90;;;;;;5072684;28;20489;-61
2020/12/04 08:37:16;;;;;;;2.53;2.40;;;5.10;99.90;;;;;;5072187;28;20424;-61
2020/12/04 08:39:41;;;;;;;2.50;2.40;;;5.20;99.90;;;;;;5072919;28;20916;-61
2020/12/04 08:42:16;;;;;;;3.80;3.60;;;5.20;99.90;;;;;;5072788;28;20461;-61
2020/12/04 08:45:00;;;;;;;1.67;1.67;;;5.30;99.90;;;;;;5072911;28;20216;-61
2020/12/04 08:47:31;;;;;;;1.60;1.60;;;5.30;99.90;;;;;;5071834;28;20393;-60
2020/12/04 08:50:02;;;;;;;1.80;1.70;;;5.30;99.90;;;;;;5072401;28;20890;-61
2020/12/04 08:52:35;;;;;;;1.60;1.60;;;5.40;99.90;;;;;;5072388;28;20455;-61
2020/12/04 08:55:12;;;;;;;1.50;1.50;;;5.40;99.90;;;;;;5072188;28;20413;-60
2020/12/04 08:57:39;;;;;;;1.50;1.50;;;5.50;99.90;;;;;;5072056;28;20409;-61
2020/12/04 09:00:07;;;;;;;1.40;1.40;;;5.40;99.90;;;;;;5072597;28;20414;-61
2020/12/04 09:02:34;;;;;;;1.70;1.70;;;5.50;99.90;;;;;;5074000;28;20514;-61
2020/12/04 09:05:00;;;;;;;1.30;1.30;;;5.60;99.90;;;;;;5076376;28;20442;-61
2020/12/04 09:07:25;;;;;;;1.97;1.97;;;5.70;99.90;;;;;;5076537;28;20880;-61
2020/12/04 09:09:51;;;;;;;6.33;2.57;;;6.00;99.90;;;;;;5074843;28;20570;-61
2020/12/04 09:12:16;;;;;;;2.37;2.27;;;6.10;99.90;;;;;;5076148;28;20191;-61
2020/12/04 09:14:42;;;;;;;2.60;2.20;;;6.30;99.90;;;;;;5078575;28;20225;-61
2020/12/04 09:17:07;;;;;;;2.07;2.00;;;6.30;99.90;;;;;;5077831;28;20167;-61
2020/12/04 09:19:33;;;;;;;1.90;1.80;;;6.30;99.90;;;;;;5076872;28;20176;-62
2020/12/04 09:21:58;;;;;;;1.70;1.70;;;6.20;99.90;;;;;;5076744;28;20283;-61
2020/12/04 09:24:24;;;;;;;1.30;1.30;;;6.10;99.90;;;;;;5076887;28;20171;-61
2020/12/04 09:26:50;;;;;;;2.00;1.90;;;5.90;99.90;;;;;;5076900;28;20171;-61
2020/12/04 09:29:15;;;;;;;1.37;1.33;;;5.70;99.90;;;;;;5077468;28;20903;-61
2020/12/04 09:31:41;;;;;;;2.23;2.13;;;5.70;99.90;;;;;;5077573;28;20257;-61
2020/12/04 09:34:06;;;;;;;1.67;1.67;;;5.60;99.90;;;;;;5077052;28;20198;-62
2020/12/04 09:36:32;;;;;;;2.23;2.13;;;5.60;99.90;;;;;;5077807;28;20200;-61
2020/12/04 09:38:58;;;;;;;1.77;1.77;;;5.80;99.90;;;;;;5077852;28;20511;-60
2020/12/04 09:41:23;;;;;;;2.00;1.90;;;6.10;99.90;;;;;;5077682;28;20182;-61
2020/12/04 09:43:49;;;;;;;2.03;2.00;;;6.40;99.90;;;;;;5074694;28;20696;-61
2020/12/04 09:46:14;;;;;;;2.20;2.10;;;7.10;99.90;;;;;;5074840;28;20171;-61
2020/12/04 09:48:40;;;;;;;2.33;2.23;;;7.40;98.60;;;;;;5074686;28;20254;-60
2020/12/04 09:51:05;;;;;;;2.50;2.40;;;7.40;98.10;;;;;;5074418;28;20209;-61
2020/12/04 09:53:31;;;;;;;1.80;1.77;;;7.40;97.60;;;;;;5074136;28;20199;-61
2020/12/04 09:55:56;;;;;;;1.67;1.67;;;6.90;98.00;;;;;;5074154;28;20167;-61
2020/12/04 09:58:22;;;;;;;2.00;1.90;;;6.80;98.30;;;;;;5073896;28;20190;-61
2020/12/04 10:00:47;;;;;;;1.57;1.47;;;7.00;98.90;;;;;;5074405;28;20171;-62
2020/12/04 10:03:14;;;;;;;1.67;1.67;;;7.40;98.70;;;;;;5074150;28;20198;-61
2020/12/04 10:05:39;;;;;;;2.27;2.13;;;7.40;97.90;;;;;;5074841;28;20172;-61
2020/12/04 10:08:05;;;;;;;1.40;1.40;;;7.40;98.00;;;;;;5073742;28;20761;-62
2020/12/04 10:10:30;;;;;;;2.13;2.13;;;7.50;97.40;;;;;;5074328;28;20541;-61
2020/12/04 10:12:56;;;;;;;1.83;1.83;;;7.30;97.70;;;;;;5073429;28;20713;-62
2020/12/04 10:15:21;;;;;;;2.17;2.13;;;7.20;98.00;;;;;;5074894;28;20173;-61
2020/12/04 10:17:47;;;;;;;2.03;1.93;;;7.50;97.70;;;;;;5073710;28;20178;-60
2020/12/04 10:20:12;;;;;;;2.20;1.83;;;7.90;96.30;;;;;;5074224;28;20178;-62
2020/12/04 10:22:38;;;;;;;1.73;1.73;;;7.80;96.20;;;;;;5073817;28;20207;-61
2020/12/04 10:25:04;;;;;;;1.80;1.70;;;7.80;96.40;;;;;;5074058;28;20203;-61
2020/12/04 10:27:29;;;;;;;2.13;1.73;;;7.90;96.70;;;;;;5073292;28;20542;-61
2020/12/04 10:29:55;;;;;;;1.80;1.80;;;8.30;96.70;;;;;;5074053;28;20161;-61
2020/12/04 10:32:20;;;;;;;2.27;2.17;;;8.40;95.50;;;;;;5075531;28;20194;-61
2020/12/04 10:34:47;;;;;;;1.87;1.77;;;8.20;95.20;;;;;;5074710;28;20174;-62
2020/12/04 10:37:12;;;;;;;3.23;1.50;;;8.10;95.60;;;;;;5072746;28;20190;-62
2020/12/04 10:39:38;;;;;;;1.97;1.90;;;8.20;95.20;;;;;;5073433;28;20843;-62
2020/12/04 10:42:04;;;;;;;1.43;1.43;;;7.90;95.20;;;;;;5073329;28;20705;-61
2020/12/04 10:44:32;;;;;;;1.83;1.73;;;7.90;95.20;;;;;;5073523;28;20557;-61
2020/12/04 10:47:01;;;;;;;1.70;1.70;;;7.90;95.20;;;;;;5073384;28;20639;-61
2020/12/04 10:49:26;;;;;;;2.20;1.50;;;7.50;95.50;;;;;;5073800;28;20420;-61
2020/12/04 10:51:56;;;;;;;1.83;1.73;;;7.40;96.00;;;;;;5074087;28;20746;-61
2020/12/04 10:54:21;;;;;;;2.50;1.60;;;7.00;96.20;;;;;;5073428;28;20543;-61
2020/12/04 10:56:47;;;;;;;1.70;1.70;;;6.60;97.10;;;;;;5072792;28;20405;-62
2020/12/04 10:59:12;;;;;;;1.73;1.73;;;6.60;97.90;;;;;;5073204;28;20187;-61
2020/12/04 11:01:43;;;;;;;2.20;1.47;;;6.70;98.00;;;;;;5073421;28;20207;-61
2020/12/04 11:06:55;;;;;;;1.80;1.70;;;6.60;97.70;;;;;;5072447;28;20905;-61
2020/12/04 11:09:21;;;;;;;1.97;1.97;;;6.50;98.70;;;;;;5073119;28;20456;-61
2020/12/04 11:11:46;;;;;;;1.43;1.43;;;6.40;98.30;;;;;;5072776;28;20409;-61
2020/12/04 11:14:12;;;;;;;1.37;1.37;;;6.60;98.00;;;;;;5073228;28;20172;-61
2020/12/04 11:16:41;;;;;;;1.80;1.80;;;6.70;98.20;;;;;;5072461;28;20171;-61
2020/12/04 11:19:10;;;;;;;1.60;1.60;;;7.10;97.40;;;;;;5073125;28;20170;-62
2020/12/04 11:21:36;;;;;;;1.73;1.67;;;7.20;96.60;;;;;;5072489;28;20944;-61
2020/12/04 11:24:02;;;;;;;1.83;1.83;;;7.10;97.30;;;;;;5072879;28;20428;-62
2020/12/04 11:26:28;;;;;;;1.57;1.57;;;7.10;97.20;;;;;;5072331;28;20413;-61
2020/12/04 11:28:53;;;;;;;1.40;1.40;;;6.90;96.50;;;;;;5072784;28;20224;-62
2020/12/04 11:31:19;;;;;;;1.47;1.47;;;6.80;96.90;;;;;;5072538;28;20168;-61
2020/12/04 11:33:45;;;;;;;5.77;1.80;;;6.70;97.20;;;;;;5072543;28;20183;-61
2020/12/04 11:36:10;;;;;;;1.77;1.67;;;6.50;97.60;;;;;;5072234;28;20172;-61
2020/12/04 11:38:36;;;;;;;1.90;1.90;;;6.50;98.00;;;;;;5071776;28;20175;-62
2020/12/04 11:41:02;;;;;;;1.80;1.80;;;6.30;97.90;;;;;;5072429;28;20225;-61
2020/12/04 11:43:27;;;;;;;1.90;1.80;;;6.50;98.50;;;;;;5072100;28;20207;-59
2020/12/04 11:45:53;;;;;;;1.77;1.77;;;6.50;98.50;;;;;;5072512;28;20204;-61
2020/12/04 11:48:19;;;;;;;1.50;1.50;;;6.60;98.60;;;;;;5072110;28;20172;-62
2020/12/04 11:50:44;;;;;;;1.83;1.83;;;7.00;98.90;;;;;;5072412;28;20168;-61
2020/12/04 11:53:10;;;;;;;2.10;2.00;;;7.70;97.30;;;;;;5071924;28;20453;-62
2020/12/04 11:55:35;;;;;;;1.67;1.67;;;8.00;96.00;;;;;;5072129;28;20229;-60
2020/12/04 11:58:01;;;;;;;1.53;1.53;;;7.90;95.50;;;;;;5071787;28;20180;-61
2020/12/04 12:00:27;;;;;;;2.13;2.03;;;8.10;96.00;;;;;;5072265;28;20586;-61
2020/12/04 12:02:52;;;;;;;1.50;1.50;;;7.80;95.30;;;;;;5072483;28;20207;-62
2020/12/04 12:05:18;;;;;;;2.77;2.57;;;7.60;95.60;;;;;;5072644;28;20204;-61
2020/12/04 12:07:44;;;;;;;1.80;1.70;;;7.30;95.80;;;;;;5072384;28;20745;-61
2020/12/04 12:10:10;;;;;;;1.80;1.80;;;7.10;95.60;;;;;;5071039;28;20172;-61
2020/12/04 12:12:36;;;;;;;1.57;1.57;;;7.00;96.80;;;;;;5072643;28;20232;-62
2020/12/04 12:15:02;;;;;;;1.80;1.77;;;6.90;96.40;;;;;;5072151;28;20168;-61
2020/12/04 12:17:27;;;;;;;1.80;1.80;;;6.80;96.20;;;;;;5071994;28;20437;-62
2020/12/04 12:19:53;;;;;;;1.23;1.23;;;6.80;96.60;;;;;;5071731;28;20409;-62
2020/12/04 12:22:18;;;;;;;1.60;1.60;;;6.60;96.70;;;;;;5071660;28;20207;-61
2020/12/04 12:24:45;;;;;;;1.83;1.83;;;6.60;97.40;;;;;;5071569;28;20217;-60
2020/12/04 12:27:10;;;;;;;1.70;1.70;;;6.90;97.70;;;;;;5071725;28;20195;-61
2020/12/04 12:29:36;;;;;;;2.00;1.70;;;7.10;96.90;;;;;;5072164;28;20440;-62
2020/12/04 12:32:03;;;;;;;1.90;1.90;;;7.40;96.90;;;;;;5072400;28;20175;-60
2020/12/04 12:37:14;;;;;;;2.07;2.07;;;8.00;95.40;;;;;;5071750;28;20409;-61
2020/12/04 12:39:40;;;;;;;2.20;2.10;;;8.50;95.90;;;;;;5073260;28;20408;-62
2020/12/04 12:42:10;;;;;;;1.70;1.70;;;8.80;94.90;;;;;;5073181;28;20457;-62
2020/12/04 12:44:36;;;;;;;2.40;1.90;;;8.30;94.10;;;;;;5073096;28;20418;-61
2020/12/04 12:47:03;;;;;;;2.03;1.43;;;8.10;94.60;;;;;;5072171;28;20775;-62
2020/12/04 12:49:28;;;;;;;1.80;1.80;;;7.80;95.30;;;;;;5072656;28;20434;-61
2020/12/04 12:51:57;;;;;;;3.63;2.20;;;7.80;95.30;;;;;;5072408;28;20411;-62
2020/12/04 12:54:26;;;;;;;1.90;1.80;;;7.60;94.80;;;;;;5071848;28;20248;-60
2020/12/04 12:56:53;;;;;;;2.00;1.90;;;7.20;95.10;;;;;;5071244;28;20410;-61
2020/12/04 12:59:18;;;;;;;1.50;1.50;;;7.10;95.30;;;;;;5071437;28;20422;-62
2020/12/04 13:01:44;;;;;;;1.67;1.67;;;7.00;95.80;;;;;;5071396;28;20504;-62
2020/12/04 13:04:10;;;;;;;1.47;1.47;;;6.90;96.40;;;;;;5071831;28;20183;-61